Terminal Aerodrome Forecast
Issued by NWS Springfield, MO

Home | Current Version | Previous Version | Graphics & Text | Print | Product List | Glossary On
Versions: 1 2 3 4 5 6 7 8 9 10 11 12
000
FTUS43 KSGF 021700
TAFSGF
TAF
KSGF 021728Z 0218/0318 25010G15KT P6SM SCT250
     FM030000 20005KT P6SM SCT250
     FM031400 23008KT P6SM SCT250=

USA.gov is the U.S. government's official web portal to all federal, state and local government web resources and services.